createdAt,value
2023-12-10T00:01:21.905Z,2.95
2023-12-10T00:03:50.269Z,3.33
2023-12-10T00:06:18.527Z,3.33
2023-12-10T00:08:47.579Z,3.47
2023-12-10T00:11:15.663Z,2.72
2023-12-10T00:13:47.186Z,2.53
2023-12-10T00:16:16.846Z,3.22
2023-12-10T00:18:45.203Z,2.70
2023-12-10T00:21:17.492Z,2.50
2023-12-10T00:23:45.644Z,3.17
2023-12-10T00:26:13.779Z,2.97
2023-12-10T00:28:42.802Z,2.97
2023-12-10T00:31:12.877Z,3.15
2023-12-10T00:33:40.705Z,3.17
2023-12-10T00:36:11.397Z,3.00
2023-12-10T00:38:40.070Z,3.10
2023-12-10T00:41:12.351Z,3.88
2023-12-10T00:43:41.649Z,2.88
2023-12-10T00:46:10.310Z,3.03
2023-12-10T00:48:42.296Z,3.83
2023-12-10T00:51:20.105Z,3.00
2023-12-10T00:53:49.417Z,2.55
2023-12-10T00:56:17.835Z,2.42
2023-12-10T00:58:46.349Z,2.30
2023-12-10T01:01:15.198Z,3.17
2023-12-10T01:03:44.869Z,3.00
2023-12-10T01:06:13.704Z,3.60
2023-12-10T01:08:42.250Z,3.58
2023-12-10T01:11:10.411Z,2.60
2023-12-10T01:13:38.589Z,2.90
2023-12-10T01:16:09.741Z,2.78
2023-12-10T01:18:38.737Z,2.83
2023-12-10T01:21:11.302Z,3.55
2023-12-10T01:23:39.716Z,3.38
2023-12-10T01:26:08.727Z,4.63
2023-12-10T01:28:37.890Z,3.53
2023-12-10T01:31:06.795Z,4.15
2023-12-10T01:33:35.663Z,3.13
2023-12-10T01:36:04.478Z,3.25
2023-12-10T01:38:34.005Z,3.10
2023-12-10T01:43:32.598Z,3.03
2023-12-10T01:46:00.724Z,2.65
2023-12-10T01:48:30.129Z,3.17
2023-12-10T01:50:59.787Z,2.67
2023-12-10T01:53:27.897Z,3.22
2023-12-10T01:55:59.511Z,3.15
2023-12-10T01:58:28.719Z,3.10
2023-12-10T02:00:59.216Z,3.53
2023-12-10T02:03:28.643Z,2.85
2023-12-10T02:06:00.245Z,2.90
2023-12-10T02:08:29.830Z,4.25
2023-12-10T02:10:59.957Z,2.90
2023-12-10T02:13:29.868Z,2.97
2023-12-10T02:15:58.208Z,2.88
2023-12-10T02:18:26.952Z,2.90
2023-12-10T02:20:56.038Z,3.28
2023-12-10T02:23:35.680Z,2.85
2023-12-10T02:26:07.035Z,2.75
2023-12-10T02:28:35.295Z,3.50
2023-12-10T02:31:04.421Z,3.03
2023-12-10T02:33:36.589Z,3.78
2023-12-10T02:36:05.248Z,2.50
2023-12-10T02:38:33.375Z,3.55
2023-12-10T02:41:02.379Z,3.33
2023-12-10T02:43:32.523Z,2.65
2023-12-10T02:46:01.205Z,3.55
2023-12-10T02:48:32.060Z,3.58
2023-12-10T02:51:00.257Z,3.58
2023-12-10T02:53:28.328Z,4.00
2023-12-10T02:55:59.149Z,3.25
2023-12-10T02:58:27.323Z,3.70
2023-12-10T03:00:57.412Z,3.88
2023-12-10T03:03:26.738Z,3.53
2023-12-10T03:05:54.901Z,4.30
2023-12-10T03:08:23.534Z,3.92
2023-12-10T03:10:52.251Z,3.92
2023-12-10T03:13:20.371Z,3.88
2023-12-10T03:15:48.489Z,3.95
2023-12-10T03:18:20.043Z,3.33
2023-12-10T03:20:48.386Z,3.67
2023-12-10T03:23:16.459Z,4.60
2023-12-10T03:25:45.487Z,3.15
2023-12-10T03:28:13.625Z,3.33
2023-12-10T03:30:42.254Z,3.20
2023-12-10T03:33:10.905Z,3.70
2023-12-10T03:35:40.413Z,3.28
2023-12-10T03:38:08.484Z,3.58
2023-12-10T03:40:37.491Z,3.35
2023-12-10T03:43:05.627Z,3.95
2023-12-10T03:45:34.250Z,3.72
2023-12-10T03:48:02.854Z,3.88
2023-12-10T03:50:30.961Z,2.72
2023-12-10T03:53:00.473Z,2.97
2023-12-10T03:55:29.523Z,2.53
2023-12-10T03:57:57.701Z,3.88
2023-12-10T04:00:26.328Z,3.15
2023-12-10T04:02:56.290Z,2.85
2023-12-10T04:05:25.713Z,3.63
2023-12-10T04:07:53.832Z,4.15
2023-12-10T04:10:24.368Z,4.10
2023-12-10T04:12:52.544Z,3.63
2023-12-10T04:15:20.857Z,4.20
2023-12-10T04:17:49.938Z,4.10
2023-12-10T04:20:18.044Z,4.72
2023-12-10T04:22:46.680Z,3.85
2023-12-10T04:25:15.356Z,3.58
2023-12-10T04:27:44.880Z,3.85
2023-12-10T04:30:14.223Z,3.28
2023-12-10T04:32:43.403Z,3.17
2023-12-10T04:35:12.096Z,2.17
2023-12-10T04:37:40.185Z,2.38
2023-12-10T04:40:12.624Z,2.88
2023-12-10T04:42:40.783Z,3.67
2023-12-10T04:45:11.457Z,2.67
2023-12-10T04:47:40.624Z,3.92
2023-12-10T04:50:09.390Z,2.88
2023-12-10T04:52:37.876Z,3.33
2023-12-10T04:55:07.353Z,2.75
2023-12-10T04:57:35.486Z,3.65
2023-12-10T05:00:05.313Z,3.75
2023-12-10T05:02:35.860Z,3.28
2023-12-10T05:05:04.255Z,2.45
2023-12-10T05:07:33.764Z,4.93
2023-12-10T05:10:02.314Z,3.58
2023-12-10T05:12:30.722Z,3.55
2023-12-10T05:14:58.917Z,3.83
2023-12-10T05:17:28.126Z,3.60
2023-12-10T05:19:57.552Z,3.58
2023-12-10T05:24:56.337Z,2.92
2023-12-10T05:27:24.501Z,3.90
2023-12-10T05:29:52.587Z,3.22
2023-12-10T05:32:23.376Z,3.60
2023-12-10T05:34:52.611Z,4.28
2023-12-10T05:37:22.072Z,3.17
2023-12-10T05:42:18.980Z,3.35
2023-12-10T05:44:48.092Z,3.83
2023-12-10T05:47:16.711Z,4.10
2023-12-10T05:49:45.498Z,3.42
2023-12-10T05:52:13.608Z,4.32
2023-12-10T05:54:44.016Z,3.83
2023-12-10T05:57:12.245Z,3.53
2023-12-10T05:59:40.323Z,4.05
2023-12-10T06:02:09.580Z,4.38
2023-12-10T06:04:37.896Z,4.80
2023-12-10T06:07:06.576Z,5.00
2023-12-10T06:09:36.072Z,4.10
2023-12-10T06:12:06.311Z,4.10
2023-12-10T06:14:34.862Z,3.80
2023-12-10T06:17:03.468Z,4.10
2023-12-10T06:19:31.743Z,4.53
2023-12-10T06:21:59.907Z,3.75
2023-12-10T06:24:29.694Z,3.67
2023-12-10T06:26:58.030Z,3.92
2023-12-10T06:29:27.954Z,3.67
2023-12-10T06:34:24.983Z,3.67
2023-12-10T06:36:54.446Z,3.20
2023-12-10T06:39:23.421Z,3.15
2023-12-10T06:41:51.604Z,2.80
2023-12-10T06:44:23.188Z,3.38
2023-12-10T06:46:53.663Z,2.97
2023-12-10T06:49:21.857Z,3.35
2023-12-10T06:51:50.067Z,2.80
2023-12-10T06:54:19.131Z,2.90
2023-12-10T06:56:47.712Z,2.55
2023-12-10T06:59:16.978Z,2.53
2023-12-10T07:01:45.674Z,3.10
2023-12-10T07:04:15.535Z,2.50
2023-12-10T07:07:06.762Z,2.33
2023-12-10T07:09:34.949Z,2.57
2023-12-10T07:12:03.729Z,3.20
2023-12-10T07:14:32.315Z,2.67
2023-12-10T07:17:00.384Z,3.15
2023-12-10T07:19:30.392Z,2.40
2023-12-10T07:21:59.260Z,2.45
2023-12-10T07:24:27.467Z,2.47
2023-12-10T07:26:56.224Z,2.30
2023-12-10T07:29:24.695Z,3.30
2023-12-10T07:31:55.184Z,2.83
2023-12-10T07:34:23.373Z,2.80
2023-12-10T07:36:53.314Z,2.28
2023-12-10T07:41:49.593Z,2.90
2023-12-10T07:44:18.594Z,2.47
2023-12-10T07:46:46.700Z,2.78
2023-12-10T07:49:15.453Z,3.03
2023-12-10T07:51:44.134Z,3.45
2023-12-10T07:54:13.757Z,3.50
2023-12-10T07:56:42.516Z,2.60
2023-12-10T07:59:10.680Z,3.67
2023-12-10T08:01:38.870Z,3.45
2023-12-10T08:04:07.649Z,3.28
2023-12-10T08:06:37.201Z,3.25
2023-12-10T08:09:06.130Z,3.67
2023-12-10T08:11:36.644Z,3.00
2023-12-10T08:14:05.800Z,2.90
2023-12-10T08:16:37.971Z,3.38
2023-12-10T08:19:08.784Z,3.65
2023-12-10T08:21:36.901Z,3.25
2023-12-10T08:24:06.100Z,2.90
2023-12-10T08:26:35.999Z,3.80
2023-12-10T08:31:32.009Z,2.65
2023-12-10T08:34:01.203Z,2.80
2023-12-10T08:36:29.397Z,3.67
2023-12-10T08:38:58.059Z,2.75
2023-12-10T08:41:26.577Z,2.58
2023-12-10T08:43:56.104Z,2.08
2023-12-10T08:48:53.364Z,2.80
2023-12-10T08:51:21.538Z,2.65
2023-12-10T08:53:49.647Z,2.92
2023-12-10T08:56:18.697Z,3.10
2023-12-10T08:58:47.290Z,2.97
2023-12-10T09:01:17.782Z,2.67
2023-12-10T09:03:46.988Z,1.90
2023-12-10T09:06:15.356Z,2.80
2023-12-10T09:08:44.744Z,1.92
2023-12-10T09:11:13.399Z,2.15
2023-12-10T09:13:41.577Z,2.45
2023-12-10T09:16:09.933Z,2.47
2023-12-10T09:18:40.680Z,3.50
2023-12-10T09:21:09.541Z,2.30
2023-12-10T09:23:37.665Z,3.15
2023-12-10T09:26:07.911Z,2.28
2023-12-10T09:28:35.996Z,2.78
2023-12-10T09:31:05.371Z,2.63
2023-12-10T09:33:34.852Z,1.97
2023-12-10T09:36:04.726Z,2.60
2023-12-10T09:38:32.822Z,2.38
2023-12-10T09:41:01.980Z,2.33
2023-12-10T09:43:30.047Z,2.78
2023-12-10T09:45:58.769Z,2.58
2023-12-10T09:48:27.588Z,2.58
2023-12-10T09:50:55.821Z,2.22
2023-12-10T09:53:25.317Z,2.72
2023-12-10T09:55:54.433Z,1.90
2023-12-10T09:58:22.508Z,2.80
2023-12-10T10:00:52.277Z,2.15
2023-12-10T10:03:22.237Z,2.65
2023-12-10T10:05:50.477Z,2.55
2023-12-10T10:08:18.557Z,1.92
2023-12-10T10:10:49.263Z,1.80
2023-12-10T10:13:17.553Z,2.47
2023-12-10T10:15:45.680Z,2.28
2023-12-10T10:18:16.527Z,1.83
2023-12-10T10:20:44.826Z,2.10
2023-12-10T10:23:12.885Z,2.28
2023-12-10T10:25:43.382Z,3.13
2023-12-10T10:28:14.195Z,2.30
2023-12-10T10:30:44.377Z,2.92
2023-12-10T10:33:13.958Z,2.15
2023-12-10T10:35:42.645Z,2.20
2023-12-10T10:38:11.913Z,2.10
2023-12-10T10:40:40.425Z,2.25
2023-12-10T10:43:08.793Z,2.30
2023-12-10T10:45:38.357Z,1.88
2023-12-10T10:48:08.036Z,1.80
2023-12-10T10:50:39.899Z,2.95
2023-12-10T10:53:09.620Z,2.22
2023-12-10T10:55:38.529Z,2.92
2023-12-10T10:58:25.249Z,3.42
2023-12-10T11:00:54.970Z,2.88
2023-12-10T11:03:28.320Z,2.10
2023-12-10T11:06:06.669Z,2.10
2023-12-10T11:08:36.633Z,2.10
2023-12-10T11:11:05.116Z,1.90
2023-12-10T11:13:47.919Z,2.70
2023-12-10T11:16:17.463Z,2.10
2023-12-10T11:18:55.479Z,1.98
2023-12-10T11:21:23.882Z,2.25
2023-12-10T11:23:52.141Z,2.00
2023-12-10T11:26:21.363Z,2.35
2023-12-10T11:28:49.562Z,1.92
2023-12-10T11:31:21.051Z,1.90
2023-12-10T11:33:53.895Z,1.70
2023-12-10T11:36:36.007Z,1.67
2023-12-10T11:39:13.347Z,2.20
2023-12-10T11:41:51.981Z,2.10
2023-12-10T11:44:28.707Z,1.95
2023-12-10T11:46:59.738Z,1.90
2023-12-10T11:49:28.889Z,2.40
2023-12-10T11:51:57.153Z,2.03
2023-12-10T11:54:25.806Z,1.48
2023-12-10T11:56:54.505Z,2.20
2023-12-10T11:59:23.081Z,1.92
2023-12-10T12:01:51.615Z,2.28
2023-12-10T12:04:22.145Z,1.95
2023-12-10T12:06:53.111Z,2.15
2023-12-10T12:09:22.146Z,2.88
2023-12-10T12:11:52.458Z,2.57
2023-12-10T12:14:22.630Z,2.17
2023-12-10T12:16:50.982Z,2.05
2023-12-10T12:19:31.123Z,3.03
2023-12-10T12:24:28.240Z,1.77
2023-12-10T12:26:57.502Z,2.15
2023-12-10T12:29:25.589Z,2.72
2023-12-10T12:32:12.171Z,1.65
2023-12-10T12:34:45.355Z,2.40
2023-12-10T12:37:13.701Z,2.17
2023-12-10T12:39:41.782Z,2.17
2023-12-10T12:42:11.001Z,2.30
2023-12-10T12:44:39.098Z,2.17
2023-12-10T12:47:07.761Z,1.60
2023-12-10T12:49:36.943Z,2.30
2023-12-10T12:54:37.941Z,1.90
2023-12-10T12:57:06.143Z,2.92
2023-12-10T12:59:34.962Z,2.38
2023-12-10T13:02:03.509Z,3.35
2023-12-10T13:04:31.921Z,2.70
2023-12-10T13:07:00.160Z,2.50
2023-12-10T13:09:30.436Z,1.77
2023-12-10T13:14:27.217Z,2.22
2023-12-10T13:16:58.119Z,2.95
2023-12-10T13:19:26.258Z,2.47
2023-12-10T13:21:55.053Z,2.60
2023-12-10T13:24:23.651Z,2.25
2023-12-10T13:26:53.255Z,2.50
2023-12-10T13:29:21.862Z,3.92
2023-12-10T13:31:52.181Z,2.60
2023-12-10T13:34:42.883Z,2.92
2023-12-10T13:37:13.541Z,2.72
2023-12-10T13:39:41.644Z,2.05
2023-12-10T13:42:11.251Z,2.30
2023-12-10T13:44:40.539Z,3.28
2023-12-10T13:47:09.297Z,2.60
2023-12-10T13:49:38.053Z,2.70
2023-12-10T13:52:07.048Z,2.60
2023-12-10T13:54:35.269Z,2.50
2023-12-10T13:57:03.375Z,2.95
2023-12-10T13:59:33.930Z,2.17
2023-12-10T14:02:03.709Z,2.55
2023-12-10T14:04:32.041Z,2.40
2023-12-10T14:07:01.377Z,2.57
2023-12-10T14:09:29.691Z,3.10
2023-12-10T14:11:58.327Z,2.95
2023-12-10T14:14:26.426Z,3.38
2023-12-10T14:16:55.961Z,2.40
2023-12-10T14:19:24.861Z,3.10
2023-12-10T14:21:53.544Z,2.80
2023-12-10T14:24:21.804Z,2.60
2023-12-10T14:26:49.920Z,2.50
2023-12-10T14:29:19.701Z,2.90
2023-12-10T14:31:47.799Z,3.30
2023-12-10T14:34:19.918Z,2.22
2023-12-10T14:36:48.103Z,3.22
2023-12-10T14:39:16.329Z,3.10
2023-12-10T14:41:46.513Z,3.00
2023-12-10T14:44:14.647Z,2.90
2023-12-10T14:46:42.727Z,3.30
2023-12-10T14:49:11.963Z,3.03
2023-12-10T14:51:42.190Z,3.45
2023-12-10T14:54:11.882Z,4.30
2023-12-10T14:56:40.024Z,5.30
2023-12-10T14:59:08.692Z,4.38
2023-12-10T15:01:37.707Z,4.20
2023-12-10T15:04:06.171Z,3.83
2023-12-10T15:06:34.349Z,3.58
2023-12-10T15:09:05.280Z,3.60
2023-12-10T15:11:35.877Z,3.80
2023-12-10T15:14:04.698Z,3.90
2023-12-10T15:16:33.405Z,3.83
2023-12-10T15:19:02.411Z,3.40
2023-12-10T15:21:30.604Z,3.80
2023-12-10T15:23:59.758Z,4.57
2023-12-10T15:26:29.249Z,4.68
2023-12-10T15:28:58.084Z,3.58
2023-12-10T15:31:26.696Z,3.60
2023-12-10T15:33:55.330Z,3.78
2023-12-10T15:36:23.577Z,3.17
2023-12-10T15:38:52.840Z,3.97
2023-12-10T15:41:21.055Z,3.20
2023-12-10T15:43:50.568Z,3.65
2023-12-10T15:46:18.816Z,3.00
2023-12-10T15:48:47.146Z,4.03
2023-12-10T15:51:16.005Z,3.50
2023-12-10T15:53:45.185Z,3.65
2023-12-10T15:56:14.245Z,3.83
2023-12-10T15:58:43.039Z,3.70
2023-12-10T16:01:16.534Z,4.13
2023-12-10T16:03:45.740Z,3.90
2023-12-10T16:06:16.493Z,3.35
2023-12-10T16:08:45.711Z,3.10
2023-12-10T16:11:13.852Z,3.30
2023-12-10T16:13:43.100Z,3.95
2023-12-10T16:16:12.668Z,3.00
2023-12-10T16:18:44.143Z,4.35
2023-12-10T16:21:14.707Z,3.60
2023-12-10T16:23:43.437Z,2.78
2023-12-10T16:26:12.105Z,3.40
2023-12-10T16:28:40.759Z,3.10
2023-12-10T16:31:08.947Z,3.38
2023-12-10T16:33:38.835Z,3.25
2023-12-10T16:36:08.322Z,3.10
2023-12-10T16:38:36.399Z,2.80
2023-12-10T16:41:05.349Z,3.33
2023-12-10T16:43:34.382Z,3.97
2023-12-10T16:46:02.520Z,3.08
2023-12-10T16:48:31.850Z,4.50
2023-12-10T16:51:03.418Z,3.45
2023-12-10T16:53:31.575Z,3.28
2023-12-10T16:55:59.715Z,3.50
2023-12-10T16:58:28.965Z,3.80
2023-12-10T17:00:57.141Z,3.22
2023-12-10T17:03:25.950Z,3.30
2023-12-10T17:05:54.815Z,3.50
2023-12-10T17:08:25.226Z,3.85
2023-12-10T17:10:54.446Z,3.60
2023-12-10T17:13:22.657Z,3.40
2023-12-10T17:15:50.914Z,3.80
2023-12-10T17:18:19.942Z,3.70
2023-12-10T17:20:48.927Z,3.15
2023-12-10T17:23:17.284Z,3.03
2023-12-10T17:25:47.724Z,3.05
2023-12-10T17:28:15.970Z,4.35
2023-12-10T17:30:44.196Z,3.33
2023-12-10T17:33:15.914Z,3.13
2023-12-10T17:35:45.824Z,2.92
2023-12-10T17:38:13.996Z,3.85
2023-12-10T17:40:43.301Z,3.05
2023-12-10T17:43:13.422Z,2.80
2023-12-10T17:45:42.052Z,2.70
2023-12-10T17:48:11.171Z,3.22
2023-12-10T17:50:39.383Z,3.55
2023-12-10T17:53:13.148Z,3.08
2023-12-10T17:55:41.316Z,2.70
2023-12-10T17:58:09.632Z,3.08
2023-12-10T18:00:41.525Z,3.20
2023-12-10T18:03:10.135Z,3.22
2023-12-10T18:05:38.416Z,3.03
2023-12-10T18:08:07.634Z,3.17
2023-12-10T18:10:37.887Z,3.42
2023-12-10T18:13:06.607Z,3.78
2023-12-10T18:15:36.463Z,3.05
2023-12-10T18:23:03.292Z,2.10
2023-12-10T18:25:31.621Z,2.85
2023-12-10T18:28:01.113Z,2.97
2023-12-10T18:30:31.124Z,3.38
2023-12-10T18:33:00.038Z,2.38
2023-12-10T18:35:29.628Z,2.63
2023-12-10T18:37:58.835Z,2.75
2023-12-10T18:40:29.150Z,3.08
2023-12-10T18:43:03.830Z,2.30
2023-12-10T18:45:32.117Z,2.22
2023-12-10T18:48:00.455Z,2.92
2023-12-10T18:50:31.142Z,2.60
2023-12-10T18:52:59.345Z,2.70
2023-12-10T18:55:27.557Z,2.05
2023-12-10T18:57:57.587Z,2.95
2023-12-10T19:00:25.763Z,2.60
2023-12-10T19:02:54.687Z,2.78
2023-12-10T19:05:23.612Z,2.38
2023-12-10T19:07:53.411Z,2.47
2023-12-10T19:10:22.317Z,1.92
2023-12-10T19:12:51.142Z,1.95
2023-12-10T19:15:19.520Z,2.00
2023-12-10T19:17:47.725Z,2.50
2023-12-10T19:20:24.479Z,2.83
2023-12-10T19:22:54.868Z,1.88
2023-12-10T19:25:23.938Z,2.20
2023-12-10T19:27:52.103Z,3.45
2023-12-10T19:30:20.405Z,2.80
2023-12-10T19:32:48.558Z,2.17
2023-12-10T19:35:18.058Z,2.22
2023-12-10T19:37:46.186Z,2.50
2023-12-10T19:40:16.481Z,2.30
2023-12-10T19:42:45.681Z,2.63
2023-12-10T19:45:13.961Z,3.47
2023-12-10T19:47:42.718Z,2.75
2023-12-10T19:50:11.209Z,2.92
2023-12-10T19:52:39.356Z,2.90
2023-12-10T19:55:07.927Z,2.70
2023-12-10T19:57:38.737Z,2.60
2023-12-10T20:00:08.363Z,2.88
2023-12-10T20:02:41.453Z,3.13
2023-12-10T20:05:10.813Z,2.20
2023-12-10T20:10:09.954Z,2.03
2023-12-10T20:12:39.617Z,2.17
2023-12-10T20:15:10.320Z,2.42
2023-12-10T20:17:40.569Z,2.65
2023-12-10T20:20:10.541Z,2.55
2023-12-10T20:22:38.627Z,2.50
2023-12-10T20:25:12.930Z,2.33
2023-12-10T20:27:47.479Z,3.03
2023-12-10T20:30:17.546Z,2.60
2023-12-10T20:32:47.917Z,2.60
2023-12-10T20:35:16.388Z,2.95
2023-12-10T20:37:46.722Z,2.67
2023-12-10T20:40:17.475Z,2.60
2023-12-10T20:42:46.998Z,2.30
2023-12-10T20:45:15.707Z,2.50
2023-12-10T20:47:44.383Z,2.30
2023-12-10T20:50:12.599Z,2.25
2023-12-10T20:52:40.759Z,2.20
2023-12-10T20:55:10.245Z,1.88
2023-12-10T20:57:38.526Z,2.33
2023-12-10T21:00:10.686Z,1.88
2023-12-10T21:02:38.950Z,2.25
2023-12-10T21:05:08.190Z,2.72
2023-12-10T21:10:06.253Z,1.75
2023-12-10T21:12:35.114Z,1.48
2023-12-10T21:15:04.862Z,1.63
2023-12-10T21:17:34.827Z,1.13
2023-12-10T21:20:05.520Z,1.50
2023-12-10T21:22:33.710Z,1.63
2023-12-10T21:25:01.897Z,1.50
2023-12-10T21:30:20.193Z,1.95
2023-12-10T21:32:49.716Z,1.83
2023-12-10T21:35:20.419Z,1.75
2023-12-10T21:37:48.520Z,2.00
2023-12-10T21:40:17.164Z,2.28
2023-12-10T21:42:45.745Z,2.22
2023-12-10T21:45:14.078Z,2.22
2023-12-10T21:47:42.302Z,2.67
2023-12-10T21:50:13.746Z,2.50
2023-12-10T21:52:42.052Z,2.55
2023-12-10T21:55:10.834Z,3.83
2023-12-10T21:57:39.917Z,2.53
2023-12-10T22:00:09.460Z,2.65
2023-12-10T22:02:42.383Z,2.75
2023-12-10T22:05:12.325Z,3.05
2023-12-10T22:07:40.872Z,2.88
2023-12-10T22:10:10.223Z,3.63
2023-12-10T22:12:38.435Z,3.45
2023-12-10T22:15:07.490Z,2.88
2023-12-10T22:17:36.566Z,3.88
2023-12-10T22:20:05.272Z,3.15
2023-12-10T22:22:35.302Z,2.85
2023-12-10T22:27:32.146Z,2.80
2023-12-10T22:30:01.098Z,2.17
2023-12-10T22:32:29.647Z,2.25
2023-12-10T22:34:57.835Z,2.25
2023-12-10T22:37:25.959Z,2.00
2023-12-10T22:39:56.498Z,2.00
2023-12-10T22:42:24.654Z,2.30
2023-12-10T22:44:52.814Z,1.80
2023-12-10T22:47:22.044Z,2.45
2023-12-10T22:49:50.308Z,2.72
2023-12-10T22:52:18.998Z,1.95
2023-12-10T22:54:47.558Z,2.42
2023-12-10T22:57:17.179Z,2.35
2023-12-10T23:02:23.416Z,2.17
2023-12-10T23:04:58.894Z,1.90
2023-12-10T23:07:28.326Z,1.85
2023-12-10T23:09:56.600Z,1.90
2023-12-10T23:12:26.456Z,2.20
2023-12-10T23:14:55.724Z,2.17
2023-12-10T23:17:24.176Z,1.92
2023-12-10T23:19:52.334Z,2.13
2023-12-10T23:22:21.246Z,1.83
2023-12-10T23:24:50.339Z,1.92
2023-12-10T23:27:18.964Z,2.30
2023-12-10T23:29:48.811Z,2.22
2023-12-10T23:34:44.712Z,1.80
2023-12-10T23:37:13.913Z,2.40
2023-12-10T23:39:44.954Z,1.70
2023-12-10T23:42:14.397Z,2.08
2023-12-10T23:44:42.449Z,2.10
2023-12-10T23:47:13.157Z,2.50
2023-12-10T23:49:42.184Z,2.58
2023-12-10T23:52:10.547Z,2.15
2023-12-10T23:54:40.062Z,2.63
2023-12-10T23:57:09.216Z,2.50
2023-12-10T23:59:37.332Z,2.25
